createdAt,value
2023-10-23T00:02:24.724Z,100793.77
2023-10-23T00:04:52.905Z,100792.98
2023-10-23T00:07:21.106Z,100794.39
2023-10-23T00:09:49.203Z,100800.28
2023-10-23T00:12:17.326Z,100796.13
2023-10-23T00:14:45.629Z,100796.63
2023-10-23T00:17:14.080Z,100794.70
2023-10-23T00:19:42.192Z,100792.90
2023-10-23T00:22:10.265Z,100790.41
2023-10-23T00:24:39.184Z,100787.52
2023-10-23T00:27:08.092Z,100789.06
2023-10-23T00:29:36.623Z,100792.85
2023-10-23T00:32:06.429Z,100794.83
2023-10-23T00:34:34.526Z,100797.48
2023-10-23T00:37:02.565Z,100796.70
2023-10-23T00:39:30.924Z,100802.36
2023-10-23T00:41:59.187Z,100801.67
2023-10-23T00:44:29.057Z,100806.02
2023-10-23T00:46:58.081Z,100809.89
2023-10-23T00:49:26.451Z,100809.54
2023-10-23T00:51:56.025Z,100806.10
2023-10-23T00:54:25.072Z,100813.32
2023-10-23T00:56:54.865Z,100811.33
2023-10-23T00:59:23.540Z,100813.66
2023-10-23T01:01:51.761Z,100811.74
2023-10-23T01:04:20.901Z,100814.36
2023-10-23T01:06:51.440Z,100811.84
2023-10-23T01:09:20.036Z,100812.14
2023-10-23T01:11:48.296Z,100810.04
2023-10-23T01:14:16.609Z,100815.35
2023-10-23T01:16:44.748Z,100814.45
2023-10-23T01:19:13.149Z,100815.40
2023-10-23T01:21:41.219Z,100819.20
2023-10-23T01:24:12.512Z,100824.05
2023-10-23T01:26:40.986Z,100827.80
2023-10-23T01:29:09.293Z,100832.34
2023-10-23T01:31:37.681Z,100837.43
2023-10-23T01:34:07.534Z,100840.66
2023-10-23T01:36:37.053Z,100842.73
2023-10-23T01:39:05.852Z,100840.19
2023-10-23T01:41:35.527Z,100842.65
2023-10-23T01:44:03.762Z,100845.15
2023-10-23T01:46:31.981Z,100843.84
2023-10-23T01:49:00.450Z,100840.95
2023-10-23T01:51:28.776Z,100845.02
2023-10-23T01:53:57.493Z,100838.89
2023-10-23T01:56:25.825Z,100840.22
2023-10-23T01:58:54.282Z,100843.85
2023-10-23T02:01:23.889Z,100842.41
2023-10-23T02:03:52.236Z,100837.85
2023-10-23T02:06:20.636Z,100838.45
2023-10-23T02:08:48.920Z,100843.23
2023-10-23T02:11:17.473Z,100847.54
2023-10-23T02:13:45.936Z,100852.79
2023-10-23T02:16:14.221Z,100855.27
2023-10-23T02:18:42.518Z,100861.84
2023-10-23T02:21:11.559Z,100872.30
2023-10-23T02:23:55.596Z,100874.52
2023-10-23T02:26:26.455Z,100881.75
2023-10-23T02:28:54.734Z,100884.85
2023-10-23T02:31:23.956Z,100885.50
2023-10-23T02:33:52.490Z,100888.84
2023-10-23T02:36:21.087Z,100889.30
2023-10-23T02:38:49.437Z,100898.54
2023-10-23T02:41:18.765Z,100902.93
2023-10-23T02:43:48.301Z,100914.23
2023-10-23T02:46:16.981Z,100917.39
2023-10-23T02:48:45.158Z,100914.14
2023-10-23T02:51:14.053Z,100906.10
2023-10-23T02:53:42.364Z,100900.23
2023-10-23T02:56:14.464Z,100897.10
2023-10-23T02:58:42.912Z,100894.38
2023-10-23T03:01:23.822Z,100897.94
2023-10-23T03:03:52.960Z,100901.23
2023-10-23T03:06:21.896Z,100908.70
2023-10-23T03:08:50.125Z,100915.02
2023-10-23T03:11:18.251Z,100921.30
2023-10-23T03:13:47.299Z,100919.27
2023-10-23T03:16:18.640Z,100916.64
2023-10-23T03:18:46.880Z,100921.44
2023-10-23T03:21:15.313Z,100925.59
2023-10-23T03:23:43.417Z,100920.70
2023-10-23T03:26:11.737Z,100920.01
2023-10-23T03:28:39.850Z,100916.34
2023-10-23T03:31:08.256Z,100914.05
2023-10-23T03:33:36.673Z,100918.58
2023-10-23T03:36:05.634Z,100920.86
2023-10-23T03:38:33.854Z,100919.58
2023-10-23T03:41:02.098Z,100924.56
2023-10-23T03:43:30.744Z,100927.52
2023-10-23T03:46:04.013Z,100936.99
2023-10-23T03:48:35.878Z,100936.06
2023-10-23T03:51:04.542Z,100940.98
2023-10-23T03:53:32.843Z,100941.42
2023-10-23T03:56:01.592Z,100943.82
2023-10-23T03:58:30.354Z,100950.02
2023-10-23T04:00:59.149Z,100951.89
2023-10-23T04:03:27.427Z,100966.73
2023-10-23T04:05:55.790Z,100990.21
2023-10-23T04:08:23.906Z,100993.14
2023-10-23T04:10:52.065Z,100993.11
2023-10-23T04:13:22.791Z,100996.65
2023-10-23T04:16:00.720Z,100993.61
2023-10-23T04:18:29.428Z,100998.19
2023-10-23T04:21:09.246Z,100999.23
2023-10-23T04:23:38.642Z,100999.15
2023-10-23T04:26:08.000Z,100998.22
2023-10-23T04:28:38.125Z,100998.40
2023-10-23T04:31:06.546Z,101004.50
2023-10-23T04:33:35.307Z,101005.36
2023-10-23T04:36:03.844Z,101013.97
2023-10-23T04:38:32.652Z,101024.16
2023-10-23T04:41:01.047Z,101027.93
2023-10-23T04:43:29.334Z,101033.98
2023-10-23T04:45:59.108Z,101037.05
2023-10-23T04:48:27.413Z,101038.64
2023-10-23T04:51:03.606Z,101045.35
2023-10-23T04:53:31.681Z,101052.24
2023-10-23T04:56:00.218Z,101059.27
2023-10-23T04:58:30.926Z,101067.17
2023-10-23T05:01:00.434Z,101077.09
2023-10-23T05:03:29.472Z,101081.79
2023-10-23T05:05:57.752Z,101089.97
2023-10-23T05:08:25.851Z,101099.55
2023-10-23T05:10:53.930Z,101110.66
2023-10-23T05:13:22.542Z,101116.77
2023-10-23T05:15:50.670Z,101123.16
2023-10-23T05:18:18.839Z,101132.02
2023-10-23T05:20:47.081Z,101141.84
2023-10-23T05:23:15.683Z,101151.56
2023-10-23T05:25:48.610Z,101158.65
2023-10-23T05:28:16.968Z,101161.14
2023-10-23T05:30:45.786Z,101170.79
2023-10-23T05:33:14.077Z,101178.96
2023-10-23T05:35:42.147Z,101180.99
2023-10-23T05:38:10.409Z,101185.16
2023-10-23T05:40:39.318Z,101189.45
2023-10-23T05:43:07.792Z,101192.71
2023-10-23T05:45:39.049Z,101194.35
2023-10-23T05:48:07.327Z,101201.52
2023-10-23T05:50:35.606Z,101204.38
2023-10-23T05:53:04.002Z,101204.44
2023-10-23T05:55:35.840Z,101209.03
2023-10-23T05:58:04.334Z,101214.27
2023-10-23T06:00:32.544Z,101216.73
2023-10-23T06:03:00.717Z,101220.23
2023-10-23T06:05:29.199Z,101221.45
2023-10-23T06:07:57.521Z,101223.30
2023-10-23T06:10:25.877Z,101228.68
2023-10-23T06:12:54.243Z,101229.61
2023-10-23T06:15:22.412Z,101230.98
2023-10-23T06:17:50.797Z,101232.65
2023-10-23T06:20:18.916Z,101230.89
2023-10-23T06:22:47.328Z,101229.62
2023-10-23T06:25:15.989Z,101232.89
2023-10-23T06:27:44.491Z,101234.73
2023-10-23T06:30:13.481Z,101243.40
2023-10-23T06:32:41.768Z,101241.41
2023-10-23T06:35:10.132Z,101242.54
2023-10-23T06:37:38.793Z,101239.48
2023-10-23T06:40:08.330Z,101238.81
2023-10-23T06:42:36.446Z,101241.86
2023-10-23T06:45:05.141Z,101242.23
2023-10-23T06:47:34.015Z,101244.45
2023-10-23T06:50:04.240Z,101247.04
2023-10-23T06:52:33.381Z,101249.60
2023-10-23T06:55:01.693Z,101254.95
2023-10-23T06:57:30.145Z,101258.29
2023-10-23T06:59:58.273Z,101262.77
2023-10-23T07:02:26.411Z,101259.76
2023-10-23T07:04:54.803Z,101263.44
2023-10-23T07:07:30.205Z,101264.48
2023-10-23T07:10:01.830Z,101264.73
2023-10-23T07:12:30.358Z,101267.14
2023-10-23T07:14:58.725Z,101266.33
2023-10-23T07:17:26.973Z,101268.85
2023-10-23T07:19:55.432Z,101269.23
2023-10-23T07:22:23.581Z,101269.83
2023-10-23T07:24:55.724Z,101270.48
2023-10-23T07:27:24.028Z,101271.08
2023-10-23T07:29:53.059Z,101274.76
2023-10-23T07:32:21.427Z,101271.84
2023-10-23T07:34:49.555Z,101268.34
2023-10-23T07:37:19.656Z,101266.98
2023-10-23T07:39:49.281Z,101268.40
2023-10-23T07:42:17.760Z,101269.98
2023-10-23T07:44:46.609Z,101272.23
2023-10-23T07:47:14.856Z,101274.65
2023-10-23T07:49:44.986Z,101275.23
2023-10-23T07:52:13.559Z,101275.34
2023-10-23T07:54:41.672Z,101275.04
2023-10-23T07:57:10.447Z,101277.77
2023-10-23T07:59:38.869Z,101278.41
2023-10-23T08:02:07.293Z,101277.39
2023-10-23T08:04:35.686Z,101281.39
2023-10-23T08:07:04.147Z,101282.20
2023-10-23T08:09:32.591Z,101277.31
2023-10-23T08:12:00.689Z,101278.02
2023-10-23T08:14:28.740Z,101276.78
2023-10-23T08:16:56.991Z,101279.35
2023-10-23T08:19:25.568Z,101278.21
2023-10-23T08:21:53.881Z,101280.24
2023-10-23T08:24:22.327Z,101279.82
2023-10-23T08:26:51.618Z,101280.52
2023-10-23T08:29:19.729Z,101275.16
2023-10-23T08:31:48.360Z,101277.59
2023-10-23T08:34:16.839Z,101276.30
2023-10-23T08:36:45.085Z,101278.73
2023-10-23T08:39:13.517Z,101270.16
2023-10-23T08:41:42.988Z,101272.95
2023-10-23T08:44:11.693Z,101272.50
2023-10-23T08:46:41.541Z,101275.39
2023-10-23T08:49:10.211Z,101275.29
2023-10-23T08:51:44.732Z,101273.39
2023-10-23T08:54:20.438Z,101271.70
2023-10-23T08:56:58.276Z,101266.86
2023-10-23T08:59:26.649Z,101267.68
2023-10-23T09:02:01.948Z,101266.23
2023-10-23T09:04:30.821Z,101264.39
2023-10-23T09:07:00.936Z,101262.86
2023-10-23T09:09:30.078Z,101260.73
2023-10-23T09:11:59.043Z,101259.81
2023-10-23T09:14:37.304Z,101255.48
2023-10-23T09:17:06.080Z,101254.99
2023-10-23T09:19:38.156Z,101253.88
2023-10-23T09:22:08.464Z,101253.89
2023-10-23T09:24:38.574Z,101253.73
2023-10-23T09:27:07.171Z,101251.66
2023-10-23T09:29:37.550Z,101249.59
2023-10-23T09:32:07.136Z,101247.99
2023-10-23T09:34:41.492Z,101243.11
2023-10-23T09:37:10.900Z,101239.67
2023-10-23T09:39:41.264Z,101237.05
2023-10-23T09:42:10.565Z,101234.16
2023-10-23T09:44:40.765Z,101231.42
2023-10-23T09:47:10.716Z,101227.06
2023-10-23T09:49:43.822Z,101227.60
2023-10-23T09:52:13.081Z,101225.75
2023-10-23T09:54:44.417Z,101219.48
2023-10-23T09:57:15.843Z,101218.70
2023-10-23T09:59:53.443Z,101216.16
2023-10-23T10:02:26.057Z,101212.15
2023-10-23T10:05:06.392Z,101212.10
2023-10-23T10:07:37.228Z,101204.81
2023-10-23T10:10:06.984Z,101204.27
2023-10-23T10:12:39.227Z,101197.55
2023-10-23T10:15:13.452Z,101197.12
2023-10-23T10:17:45.227Z,101197.50
2023-10-23T10:20:14.013Z,101195.66
2023-10-23T10:22:44.924Z,101192.15
2023-10-23T10:25:14.799Z,101191.23
2023-10-23T10:27:43.152Z,101190.30
2023-10-23T10:30:42.782Z,101188.09
2023-10-23T10:34:25.292Z,101179.77
2023-10-23T10:36:12.432Z,101177.65
2023-10-23T10:38:42.358Z,101177.58
2023-10-23T10:41:20.085Z,101173.45
2023-10-23T10:43:53.074Z,101170.63
2023-10-23T10:46:28.049Z,101170.85
2023-10-23T10:48:57.231Z,101167.70
2023-10-23T10:51:27.887Z,101171.12
2023-10-23T10:53:59.573Z,101170.69
2023-10-23T10:56:28.489Z,101171.70
2023-10-23T10:59:03.830Z,101164.98
2023-10-23T11:01:33.398Z,101161.55
2023-10-23T11:04:01.850Z,101157.25
2023-10-23T11:06:31.252Z,101154.97
2023-10-23T11:09:00.604Z,101154.12
2023-10-23T11:11:29.649Z,101149.77
2023-10-23T11:14:03.644Z,101149.48
2023-10-23T11:16:32.301Z,101149.89
2023-10-23T11:19:02.250Z,101144.76
2023-10-23T11:21:30.534Z,101152.02
2023-10-23T11:23:58.818Z,101154.06
2023-10-23T11:26:27.490Z,101155.00
2023-10-23T11:28:55.867Z,101146.29
2023-10-23T11:31:24.144Z,101145.14
2023-10-23T11:33:56.227Z,101145.75
2023-10-23T11:36:28.120Z,101148.60
2023-10-23T11:38:58.178Z,101148.23
2023-10-23T11:41:28.924Z,101147.79
2023-10-23T11:44:02.267Z,101145.78
2023-10-23T11:46:31.177Z,101150.90
2023-10-23T11:49:02.434Z,101150.84
2023-10-23T11:51:31.227Z,101154.48
2023-10-23T11:54:00.616Z,101153.63
2023-10-23T11:56:30.038Z,101149.89
2023-10-23T11:58:58.500Z,101146.95
2023-10-23T12:01:26.749Z,101141.33
2023-10-23T12:03:54.960Z,101145.21
2023-10-23T12:06:23.252Z,101143.66
2023-10-23T12:08:51.808Z,101147.15
2023-10-23T12:11:20.274Z,101143.86
2023-10-23T12:13:48.457Z,101145.69
2023-10-23T12:16:16.794Z,101144.98
2023-10-23T12:18:45.239Z,101141.17
2023-10-23T12:21:15.052Z,101139.58
2023-10-23T12:23:43.617Z,101140.39
2023-10-23T12:26:12.539Z,101132.96
2023-10-23T12:28:41.173Z,101132.48
2023-10-23T12:31:22.724Z,101133.78
2023-10-23T12:33:53.386Z,101132.88
2023-10-23T12:36:22.450Z,101132.77
2023-10-23T12:38:50.513Z,101126.56
2023-10-23T12:41:19.436Z,101121.84
2023-10-23T12:43:49.021Z,101117.68
2023-10-23T12:46:18.522Z,101118.74
2023-10-23T12:48:46.880Z,101112.61
2023-10-23T12:51:16.656Z,101109.64
2023-10-23T12:53:45.233Z,101108.02
2023-10-23T12:56:13.741Z,101111.65
2023-10-23T12:58:42.660Z,101110.65
2023-10-23T13:01:11.002Z,101108.27
2023-10-23T13:03:39.361Z,101107.67
2023-10-23T13:06:08.883Z,101105.13
2023-10-23T13:08:37.709Z,101102.66
2023-10-23T13:11:06.700Z,101102.91
2023-10-23T13:13:34.774Z,101103.21
2023-10-23T13:16:03.212Z,101108.21
2023-10-23T13:18:33.423Z,101109.66
2023-10-23T13:21:33.564Z,101102.60
2023-10-23T13:23:51.368Z,101104.16
2023-10-23T13:26:19.792Z,101106.25
2023-10-23T13:28:49.497Z,101101.58
2023-10-23T13:31:18.494Z,101105.19
2023-10-23T13:33:47.336Z,101104.23
2023-10-23T13:36:15.529Z,101102.39
2023-10-23T13:38:43.806Z,101112.01
2023-10-23T13:41:12.169Z,101116.27
2023-10-23T13:43:40.864Z,101113.36
2023-10-23T13:46:09.185Z,101111.12
2023-10-23T13:48:37.622Z,101112.57
2023-10-23T13:51:05.799Z,101114.92
2023-10-23T13:53:34.534Z,101111.27
2023-10-23T13:56:03.048Z,101105.02
2023-10-23T13:58:31.293Z,101106.01
2023-10-23T14:01:00.291Z,101110.36
2023-10-23T14:03:29.477Z,101111.63
2023-10-23T14:05:59.297Z,101112.89
2023-10-23T14:08:32.677Z,101114.05
2023-10-23T14:11:57.216Z,101112.72
2023-10-23T14:14:04.014Z,101114.58
2023-10-23T14:16:32.462Z,101114.61
2023-10-23T14:19:00.807Z,101108.95
2023-10-23T14:21:29.781Z,101108.18
2023-10-23T14:23:57.891Z,101102.98
2023-10-23T14:26:27.294Z,101103.94
2023-10-23T14:28:57.106Z,101103.53
2023-10-23T14:31:25.461Z,101104.17
2023-10-23T14:33:55.195Z,101105.20
2023-10-23T14:36:24.514Z,101108.58
2023-10-23T14:38:52.875Z,101110.30
2023-10-23T14:41:21.521Z,101113.80
2023-10-23T14:43:49.666Z,101115.61
2023-10-23T14:46:18.168Z,101114.88
2023-10-23T14:48:48.206Z,101115.40
2023-10-23T14:51:16.601Z,101115.27
2023-10-23T14:53:45.212Z,101120.77
2023-10-23T14:56:14.054Z,101128.14
2023-10-23T14:58:42.269Z,101134.80
2023-10-23T15:01:10.543Z,101144.65
2023-10-23T15:03:43.385Z,101151.24
2023-10-23T15:06:13.072Z,101152.67
2023-10-23T15:08:42.692Z,101161.51
2023-10-23T15:11:15.200Z,101169.75
2023-10-23T15:13:43.641Z,101168.48
2023-10-23T15:16:12.098Z,101164.92
2023-10-23T15:18:40.871Z,101162.67
2023-10-23T15:21:09.466Z,101167.27
2023-10-23T15:23:37.884Z,101168.45
2023-10-23T15:26:06.191Z,101172.37
2023-10-23T15:28:37.022Z,101164.61
2023-10-23T15:31:07.057Z,101167.25
2023-10-23T15:33:37.090Z,101166.52
2023-10-23T15:36:06.822Z,101170.58
2023-10-23T15:38:36.549Z,101170.86
2023-10-23T15:41:08.072Z,101177.67
2023-10-23T15:43:37.990Z,101177.88
2023-10-23T15:46:12.635Z,101177.64
2023-10-23T15:48:42.387Z,101182.39
2023-10-23T15:51:11.790Z,101190.27
2023-10-23T15:53:40.504Z,101199.09
2023-10-23T15:56:09.317Z,101199.84
2023-10-23T15:58:37.817Z,101200.16
2023-10-23T16:01:06.698Z,101200.63
2023-10-23T16:03:36.037Z,101198.91
2023-10-23T16:06:13.812Z,101201.56
2023-10-23T16:08:41.947Z,101203.06
2023-10-23T16:11:10.272Z,101209.86
2023-10-23T16:13:39.516Z,101206.22
2023-10-23T16:16:16.357Z,101208.80
2023-10-23T16:18:46.805Z,101208.67
2023-10-23T16:21:16.508Z,101209.20
2023-10-23T16:23:45.050Z,101211.36
2023-10-23T16:26:13.491Z,101213.91
2023-10-23T16:28:42.029Z,101218.69
2023-10-23T16:31:15.205Z,101224.52
2023-10-23T16:33:43.710Z,101226.75
2023-10-23T16:36:12.294Z,101227.94
2023-10-23T16:38:41.391Z,101228.41
2023-10-23T16:41:09.577Z,101229.39
2023-10-23T16:43:41.579Z,101232.23
2023-10-23T16:46:12.816Z,101229.89
2023-10-23T16:48:42.938Z,101228.41
2023-10-23T16:51:11.611Z,101226.56
2023-10-23T16:53:40.486Z,101225.98
2023-10-23T16:56:08.774Z,101228.21
2023-10-23T16:58:39.578Z,101226.80
2023-10-23T17:01:11.156Z,101221.90
2023-10-23T17:03:41.341Z,101217.59
2023-10-23T17:06:10.541Z,101219.53
2023-10-23T17:08:38.809Z,101219.05
2023-10-23T17:11:08.727Z,101217.55
2023-10-23T17:13:37.921Z,101219.45
2023-10-23T17:16:07.026Z,101220.79
2023-10-23T17:18:35.166Z,101218.50
2023-10-23T17:21:03.837Z,101221.70
2023-10-23T17:23:33.099Z,101218.84
2023-10-23T17:26:06.062Z,101216.86
2023-10-23T17:28:36.218Z,101213.49
2023-10-23T17:31:08.105Z,101216.09
2023-10-23T17:33:36.968Z,101222.24
2023-10-23T17:36:06.200Z,101224.52
2023-10-23T17:38:38.145Z,101228.22
2023-10-23T17:41:15.881Z,101225.27
2023-10-23T17:43:44.911Z,101223.64
2023-10-23T17:46:13.532Z,101226.50
2023-10-23T17:48:41.798Z,101228.70
2023-10-23T17:51:11.948Z,101230.63
2023-10-23T17:53:53.680Z,101235.27
2023-10-23T17:56:29.753Z,101232.00
2023-10-23T17:58:59.078Z,101242.17
2023-10-23T18:01:30.387Z,101245.20
2023-10-23T18:03:59.777Z,101242.44
2023-10-23T18:06:28.114Z,101239.59
2023-10-23T18:08:57.997Z,101241.44
2023-10-23T18:11:26.341Z,101241.63
2023-10-23T18:13:54.468Z,101246.60
2023-10-23T18:16:24.373Z,101245.81
2023-10-23T18:18:52.524Z,101247.80
2023-10-23T18:21:20.726Z,101252.23
2023-10-23T18:23:49.098Z,101255.30
2023-10-23T18:26:17.932Z,101255.91
2023-10-23T18:28:46.125Z,101255.67
2023-10-23T18:31:15.263Z,101258.52
2023-10-23T18:33:46.817Z,101255.36
2023-10-23T18:36:19.452Z,101256.68
2023-10-23T18:38:48.238Z,101253.81
2023-10-23T18:41:36.672Z,101249.30
2023-10-23T18:44:05.710Z,101252.90
2023-10-23T18:46:36.058Z,101255.11
2023-10-23T18:49:05.272Z,101256.81
2023-10-23T18:51:33.821Z,101263.18
2023-10-23T18:54:02.538Z,101269.55
2023-10-23T18:56:32.473Z,101270.61
2023-10-23T18:59:00.830Z,101271.24
2023-10-23T19:01:29.266Z,101271.29
2023-10-23T19:04:00.501Z,101270.47
2023-10-23T19:06:30.623Z,101274.36
2023-10-23T19:09:03.768Z,101278.08
2023-10-23T19:11:32.390Z,101271.13
2023-10-23T19:14:01.948Z,101272.48
2023-10-23T19:16:30.058Z,101273.61
2023-10-23T19:19:00.196Z,101281.42
2023-10-23T19:21:33.433Z,101284.27
2023-10-23T19:24:02.614Z,101287.48
2023-10-23T19:26:30.951Z,101288.07
2023-10-23T19:28:59.077Z,101291.88
2023-10-23T19:31:28.373Z,101294.59
2023-10-23T19:33:57.251Z,101292.38
2023-10-23T19:36:26.261Z,101298.02
2023-10-23T19:38:55.264Z,101300.80
2023-10-23T19:41:35.169Z,101304.87
2023-10-23T19:44:04.441Z,101314.29
2023-10-23T19:46:33.047Z,101312.12
2023-10-23T19:49:19.276Z,101309.90
2023-10-23T19:52:10.139Z,101313.21
2023-10-23T19:55:04.639Z,101311.91
2023-10-23T19:58:03.016Z,101306.38
2023-10-23T20:00:33.655Z,101306.94
2023-10-23T20:03:01.915Z,101307.61
2023-10-23T20:05:32.156Z,101307.18
2023-10-23T20:08:02.104Z,101303.54
2023-10-23T20:10:31.587Z,101307.23
2023-10-23T20:13:00.322Z,101303.90
2023-10-23T20:15:30.570Z,101308.68
2023-10-23T20:17:59.203Z,101308.63
2023-10-23T20:20:27.780Z,101310.95
2023-10-23T20:22:56.318Z,101304.75
2023-10-23T20:25:24.790Z,101303.70
2023-10-23T20:27:53.267Z,101300.62
2023-10-23T20:30:21.868Z,101300.29
2023-10-23T20:32:50.648Z,101301.02
2023-10-23T20:35:19.292Z,101300.52
2023-10-23T20:37:47.328Z,101305.91
2023-10-23T20:40:15.853Z,101304.83
2023-10-23T20:42:44.070Z,101308.24
2023-10-23T20:45:14.413Z,101309.66
2023-10-23T20:47:43.354Z,101304.92
2023-10-23T20:50:11.764Z,101302.98
2023-10-23T20:52:39.945Z,101304.19
2023-10-23T20:55:08.725Z,101305.79
2023-10-23T20:57:37.389Z,101306.36
2023-10-23T21:00:07.678Z,101306.43
2023-10-23T21:02:37.316Z,101304.29
2023-10-23T21:05:06.661Z,101304.90
2023-10-23T21:07:35.660Z,101306.23
2023-10-23T21:10:04.643Z,101301.80
2023-10-23T21:12:32.842Z,101304.79
2023-10-23T21:15:00.902Z,101308.29
2023-10-23T21:17:29.596Z,101311.48
2023-10-23T21:19:57.974Z,101310.64
2023-10-23T21:22:26.328Z,101315.57
2023-10-23T21:24:54.460Z,101314.65
2023-10-23T21:27:22.840Z,101309.34
2023-10-23T21:29:51.170Z,101308.48
2023-10-23T21:32:19.279Z,101302.57
2023-10-23T21:34:47.389Z,101303.77
2023-10-23T21:37:15.536Z,101303.14
2023-10-23T21:39:43.757Z,101300.85
2023-10-23T21:42:11.863Z,101303.58
2023-10-23T21:44:40.407Z,101305.55
2023-10-23T21:47:08.741Z,101304.66
2023-10-23T21:49:37.496Z,101305.09
2023-10-23T21:52:06.981Z,101306.98
2023-10-23T21:54:35.819Z,101307.12
2023-10-23T21:57:20.586Z,101310.14
2023-10-23T21:59:52.001Z,101313.85
2023-10-23T22:02:20.920Z,101314.98
2023-10-23T22:04:49.487Z,101320.31
2023-10-23T22:07:18.359Z,101321.66
2023-10-23T22:09:46.942Z,101317.54
2023-10-23T22:12:16.027Z,101317.86
2023-10-23T22:14:44.727Z,101311.02
2023-10-23T22:17:13.075Z,101312.50
2023-10-23T22:19:41.785Z,101315.55
2023-10-23T22:22:10.050Z,101311.82
2023-10-23T22:24:38.466Z,101315.04
2023-10-23T22:27:06.706Z,101314.25
2023-10-23T22:29:35.092Z,101313.18
2023-10-23T22:32:05.133Z,101313.23
2023-10-23T22:34:33.582Z,101308.80
2023-10-23T22:37:55.125Z,101309.17
2023-10-23T22:39:50.113Z,101309.03
2023-10-23T22:42:18.416Z,101310.89
2023-10-23T22:44:46.433Z,101310.75
2023-10-23T22:47:15.188Z,101306.73
2023-10-23T22:49:44.420Z,101306.95
2023-10-23T22:52:13.250Z,101308.63
2023-10-23T22:54:42.457Z,101306.95
2023-10-23T22:57:13.331Z,101308.91
2023-10-23T22:59:43.924Z,101307.58
2023-10-23T23:02:14.459Z,101311.29
2023-10-23T23:04:43.271Z,101311.08
2023-10-23T23:07:12.692Z,101304.30
2023-10-23T23:09:41.315Z,101305.20
2023-10-23T23:12:10.347Z,101307.02
2023-10-23T23:14:39.117Z,101312.06
2023-10-23T23:17:08.311Z,101313.30
2023-10-23T23:19:40.329Z,101318.05
2023-10-23T23:22:10.252Z,101325.39
2023-10-23T23:24:38.817Z,101331.51
2023-10-23T23:27:07.418Z,101330.42
2023-10-23T23:29:36.106Z,101325.30
2023-10-23T23:32:05.015Z,101322.56
2023-10-23T23:34:33.300Z,101322.02
2023-10-23T23:37:01.849Z,101324.27
2023-10-23T23:39:30.097Z,101325.38
2023-10-23T23:41:58.730Z,101323.60
2023-10-23T23:44:27.210Z,101316.04
2023-10-23T23:46:57.641Z,101313.91
2023-10-23T23:49:28.456Z,101312.64
2023-10-23T23:51:56.853Z,101308.56
2023-10-23T23:54:24.985Z,101311.98
2023-10-23T23:56:53.553Z,101309.01
2023-10-23T23:59:22.186Z,101306.82
